Time;durP1;ratioP1;P1;durP2;ratioP2;P2;SDS_P1;SDS_P2;PMS_P1;PMS_P2;Temp;Humidity;BMP_temperature;BMP_pressure;BME280_temperature;BME280_humidity;BME280_pressure;Samples;Min_cycle;Max_cycle;Signal;HPM_P1;HPM_P2
2021/11/08 00:01:45;;;;;;;14.02;7.50;;;6.30;99.90;;;;;;4984526;28;20027;-74
2021/11/08 00:04:10;;;;;;;13.90;6.95;;;6.30;99.90;;;;;;4991108;28;20037;-74
2021/11/08 00:06:36;;;;;;;18.75;7.53;;;6.30;99.90;;;;;;4988444;28;20030;-74
2021/11/08 00:09:04;;;;;;;13.02;6.93;;;6.30;99.90;;;;;;4988304;28;20038;-74
2021/11/08 00:11:30;;;;;;;16.80;7.28;;;6.20;99.90;;;;;;4990960;28;20105;-74
2021/11/08 00:13:57;;;;;;;17.10;7.68;;;6.20;99.90;;;;;;4982970;28;20023;-74
2021/11/08 00:21:30;;;;;;;12.40;7.25;;;6.10;99.90;;;;;;4991358;28;20018;-74
2021/11/08 00:23:56;;;;;;;13.30;7.63;;;6.00;99.90;;;;;;4977975;28;20019;-74
2021/11/08 00:26:21;;;;;;;13.98;7.30;;;6.00;99.90;;;;;;4980692;28;20535;-75
2021/11/08 00:28:47;;;;;;;18.55;7.13;;;5.90;99.90;;;;;;4980848;28;20022;-74
2021/11/08 00:31:12;;;;;;;16.55;7.30;;;5.80;99.90;;;;;;4989147;28;20524;-75
2021/11/08 00:33:39;;;;;;;20.38;7.63;;;5.70;99.90;;;;;;4992224;28;20045;-75
2021/11/08 00:36:04;;;;;;;14.32;7.95;;;5.70;99.90;;;;;;4992187;28;20028;-75
2021/11/08 00:38:31;;;;;;;15.35;8.07;;;5.70;99.90;;;;;;4985734;28;20123;-75
2021/11/08 00:40:58;;;;;;;12.95;7.70;;;5.60;99.90;;;;;;4982560;28;20126;-75
2021/11/08 00:43:24;;;;;;;17.08;8.30;;;5.70;99.90;;;;;;4988687;28;20092;-75
2021/11/08 00:45:51;;;;;;;13.77;6.70;;;5.60;99.90;;;;;;4976654;28;20081;-74
2021/11/08 00:48:20;;;;;;;12.70;6.50;;;5.40;99.90;;;;;;4982809;28;20030;-75
2021/11/08 00:50:47;;;;;;;17.63;6.93;;;5.40;99.90;;;;;;4986175;28;20396;-74
2021/11/08 00:53:13;;;;;;;14.35;6.15;;;5.40;99.90;;;;;;4987487;28;20539;-74
2021/11/08 00:55:40;;;;;;;12.50;6.28;;;5.30;99.90;;;;;;4987400;28;20022;-75
2021/11/08 00:58:08;;;;;;;14.88;6.68;;;5.40;99.90;;;;;;4986419;28;20408;-74
2021/11/08 01:00:33;;;;;;;12.27;5.97;;;5.30;99.90;;;;;;4978157;28;20026;-74
2021/11/08 01:03:03;;;;;;;13.63;6.30;;;5.40;99.90;;;;;;4988290;28;20033;-74
2021/11/08 01:05:28;;;;;;;15.50;6.57;;;5.40;99.90;;;;;;4984741;28;20023;-74
2021/11/08 01:07:54;;;;;;;11.75;5.65;;;5.30;99.90;;;;;;4988756;28;20026;-74
2021/11/08 01:10:20;;;;;;;12.43;6.22;;;5.30;99.90;;;;;;4992230;28;20019;-74
2021/11/08 01:12:47;;;;;;;15.85;6.75;;;5.40;99.90;;;;;;4982353;28;20023;-74
2021/11/08 01:15:14;;;;;;;11.07;5.82;;;5.30;99.90;;;;;;4992274;28;20026;-74
2021/11/08 01:17:41;;;;;;;15.52;6.70;;;5.30;99.90;;;;;;4994948;28;20443;-74
2021/11/08 01:20:09;;;;;;;14.57;7.05;;;5.10;99.90;;;;;;4978889;28;20046;-75
2021/11/08 01:22:36;;;;;;;11.60;7.47;;;5.10;99.90;;;;;;4974194;28;20066;-75
2021/11/08 01:25:03;;;;;;;13.90;7.03;;;5.20;99.90;;;;;;4975236;28;20031;-74
2021/11/08 01:27:40;;;;;;;10.90;7.15;;;5.00;99.90;;;;;;4974219;28;20409;-75
2021/11/08 01:30:13;;;;;;;15.70;7.25;;;5.00;99.90;;;;;;4987955;28;20027;-74
2021/11/08 01:32:40;;;;;;;14.13;6.72;;;5.00;99.90;;;;;;4986940;28;20026;-74
2021/11/08 01:35:06;;;;;;;13.15;6.25;;;4.90;99.90;;;;;;4984799;28;20018;-75
2021/11/08 01:37:32;;;;;;;15.45;6.25;;;5.00;99.90;;;;;;4993438;28;20030;-74
2021/11/08 01:39:58;;;;;;;13.10;5.93;;;5.10;99.90;;;;;;4977760;28;20035;-75
2021/11/08 01:42:25;;;;;;;13.98;6.57;;;5.10;99.90;;;;;;4975198;28;20034;-75
2021/11/08 01:44:50;;;;;;;12.48;6.05;;;5.20;99.90;;;;;;4975254;28;20026;-75
2021/11/08 01:47:16;;;;;;;14.80;6.35;;;5.30;99.90;;;;;;4975038;28;20027;-74
2021/11/08 01:49:42;;;;;;;11.95;6.15;;;5.30;99.90;;;;;;4975143;28;20032;-75
2021/11/08 01:52:11;;;;;;;13.15;6.43;;;5.30;99.90;;;;;;4974973;28;20392;-75
2021/11/08 01:54:38;;;;;;;15.32;7.05;;;5.30;99.90;;;;;;4986920;28;20029;-75
2021/11/08 01:57:04;;;;;;;13.73;6.85;;;5.30;99.90;;;;;;4984894;28;20022;-75
2021/11/08 01:59:32;;;;;;;12.32;6.15;;;5.30;99.90;;;;;;4981016;28;20026;-75
2021/11/08 02:01:58;;;;;;;15.05;7.20;;;5.30;99.90;;;;;;4982738;28;20035;-74
2021/11/08 02:04:24;;;;;;;12.48;7.70;;;5.30;99.90;;;;;;4974803;28;20393;-73
2021/11/08 02:06:51;;;;;;;15.63;7.40;;;5.10;99.90;;;;;;4974712;28;20026;-74
2021/11/08 02:09:16;;;;;;;18.42;8.38;;;5.00;99.90;;;;;;4974765;28;20023;-73
2021/11/08 02:11:42;;;;;;;17.20;8.30;;;5.00;99.90;;;;;;4974480;28;20027;-74
2021/11/08 02:14:08;;;;;;;16.33;7.97;;;5.00;99.90;;;;;;4987769;28;20027;-73
2021/11/08 02:16:34;;;;;;;18.08;8.48;;;5.00;99.90;;;;;;4984591;28;20091;-74
2021/11/08 02:19:02;;;;;;;14.32;7.85;;;5.00;99.90;;;;;;4979810;28;20026;-75
2021/11/08 02:21:29;;;;;;;17.60;8.25;;;5.10;99.90;;;;;;4992565;28;20420;-74
2021/11/08 02:23:57;;;;;;;14.45;8.07;;;5.20;99.90;;;;;;4980834;28;20019;-75
2021/11/08 02:26:22;;;;;;;17.48;8.13;;;5.20;99.90;;;;;;4982211;28;20027;-74
2021/11/08 02:28:50;;;;;;;15.00;8.57;;;5.30;99.90;;;;;;4974447;28;20022;-74
2021/11/08 02:31:18;;;;;;;15.73;9.00;;;5.30;99.90;;;;;;4974255;28;20019;-74
2021/11/08 02:33:45;;;;;;;20.80;10.85;;;5.20;99.90;;;;;;4974335;28;20023;-75
2021/11/08 02:36:11;;;;;;;21.77;11.32;;;5.30;99.90;;;;;;4974269;28;20024;-75
2021/11/08 02:38:41;;;;;;;22.23;8.80;;;5.30;99.90;;;;;;4985853;28;20019;-74
2021/11/08 02:41:08;;;;;;;17.13;11.18;;;5.30;99.90;;;;;;4972716;28;20411;-75
2021/11/08 02:43:39;;;;;;;19.33;10.73;;;5.30;99.90;;;;;;4973001;28;20027;-75
2021/11/08 02:48:30;;;;;;;25.23;12.45;;;5.30;99.90;;;;;;4974682;28;20109;-76
2021/11/08 02:51:07;;;;;;;24.27;10.63;;;5.30;99.90;;;;;;4974070;28;20027;-76
2021/11/08 02:53:34;;;;;;;19.15;8.13;;;5.30;99.90;;;;;;4972810;28;20027;-76
2021/11/08 02:56:00;;;;;;;15.82;8.43;;;5.30;99.90;;;;;;4973994;28;20049;-76
2021/11/08 02:58:28;;;;;;;19.02;8.73;;;5.30;99.90;;;;;;4972694;28;20572;-76
2021/11/08 03:00:55;;;;;;;15.18;8.68;;;5.30;99.90;;;;;;4972606;28;20033;-76
2021/11/08 03:03:28;;;;;;;18.30;8.60;;;5.40;99.90;;;;;;4972652;28;20027;-76
2021/11/08 03:05:59;;;;;;;18.42;8.80;;;5.40;99.90;;;;;;4973868;28;20101;-76
2021/11/08 03:08:25;;;;;;;17.02;8.82;;;5.40;99.90;;;;;;4973795;28;20015;-75
2021/11/08 03:10:56;;;;;;;17.63;8.73;;;5.40;99.90;;;;;;4973115;28;20023;-75
2021/11/08 03:13:21;;;;;;;20.17;9.35;;;5.40;99.90;;;;;;4972432;28;20054;-75
2021/11/08 03:18:25;;;;;;;19.33;8.68;;;5.30;99.90;;;;;;4982982;28;20038;-75
2021/11/08 03:20:51;;;;;;;22.95;10.40;;;5.30;99.90;;;;;;4973608;28;20105;-75
2021/11/08 03:23:17;;;;;;;21.75;9.73;;;5.30;99.90;;;;;;4973020;28;20121;-74
2021/11/08 03:25:55;;;;;;;20.25;9.95;;;5.30;99.90;;;;;;4986585;28;20506;-73
2021/11/08 03:28:21;;;;;;;18.60;9.10;;;5.30;99.90;;;;;;4973534;28;20026;-73
2021/11/08 03:30:49;;;;;;;18.63;8.77;;;5.30;99.90;;;;;;4973264;28;20053;-73
2021/11/08 03:33:17;;;;;;;20.30;9.45;;;5.40;99.90;;;;;;4973036;28;20433;-73
2021/11/08 03:35:43;;;;;;;17.48;8.93;;;5.30;99.90;;;;;;4977051;28;20473;-73
2021/11/08 03:38:10;;;;;;;17.05;9.00;;;5.30;99.90;;;;;;4974705;28;20173;-75
2021/11/08 03:40:38;;;;;;;26.98;10.57;;;5.30;99.90;;;;;;4984503;28;20034;-74
2021/11/08 03:43:06;;;;;;;18.23;10.80;;;5.20;99.90;;;;;;4984969;28;20038;-74
2021/11/08 03:45:34;;;;;;;20.65;10.68;;;5.10;99.90;;;;;;4973120;28;20475;-75
2021/11/08 03:47:59;;;;;;;17.80;10.20;;;5.10;99.90;;;;;;4974900;28;20030;-75
2021/11/08 03:50:26;;;;;;;21.02;10.15;;;5.20;99.90;;;;;;4992629;28;20388;-75
2021/11/08 03:52:52;;;;;;;20.83;10.38;;;5.20;99.90;;;;;;4977918;28;20031;-74
2021/11/08 03:55:19;;;;;;;23.30;10.60;;;5.20;99.90;;;;;;4984137;28;20029;-73
2021/11/08 03:57:48;;;;;;;20.20;9.70;;;5.20;99.90;;;;;;4986338;28;20053;-73
2021/11/08 04:00:15;;;;;;;20.45;10.40;;;5.20;99.90;;;;;;4981917;28;20030;-74
2021/11/08 04:02:42;;;;;;;19.83;9.85;;;5.20;99.90;;;;;;4979124;28;20031;-74
2021/11/08 04:05:09;;;;;;;20.17;9.55;;;5.20;99.90;;;;;;4982247;28;20027;-75
2021/11/08 04:07:35;;;;;;;20.10;9.93;;;5.20;99.90;;;;;;4972668;28;20034;-74
2021/11/08 04:10:01;;;;;;;19.13;9.90;;;5.20;99.90;;;;;;4980639;28;20041;-75
2021/11/08 04:12:28;;;;;;;19.15;9.90;;;5.20;99.90;;;;;;4977979;28;20030;-75
2021/11/08 04:14:54;;;;;;;16.88;9.02;;;5.20;99.90;;;;;;4983232;28;20023;-73
2021/11/08 04:17:22;;;;;;;20.40;9.05;;;5.20;99.90;;;;;;4972700;28;20382;-71
2021/11/08 04:19:48;;;;;;;21.98;10.02;;;5.30;99.90;;;;;;4972815;28;20413;-75
2021/11/08 04:22:14;;;;;;;19.63;10.70;;;5.30;99.90;;;;;;4985820;28;20023;-73
2021/11/08 04:24:42;;;;;;;22.52;10.63;;;5.20;99.90;;;;;;4975036;28;20496;-73
2021/11/08 04:27:09;;;;;;;16.02;9.07;;;5.20;99.90;;;;;;4979373;28;20395;-74
2021/11/08 04:29:35;;;;;;;18.80;9.82;;;5.20;99.90;;;;;;4985293;28;20027;-73
2021/11/08 04:32:01;;;;;;;18.52;9.73;;;5.30;99.90;;;;;;4989569;28;20099;-73
2021/11/08 04:34:40;;;;;;;19.20;10.57;;;5.20;99.90;;;;;;4975230;28;20055;-73
2021/11/08 04:37:24;;;;;;;17.10;10.60;;;5.20;99.90;;;;;;4982418;28;20046;-73
2021/11/08 04:42:48;;;;;;;19.17;9.15;;;5.30;99.90;;;;;;4987475;28;20476;-73
2021/11/08 04:45:30;;;;;;;20.35;10.50;;;5.30;99.90;;;;;;4975070;28;20030;-75
2021/11/08 04:50:50;;;;;;;20.50;10.23;;;5.30;99.90;;;;;;4986107;28;20062;-73
2021/11/08 04:53:28;;;;;;;23.13;10.40;;;5.30;99.90;;;;;;4982720;28;20195;-73
2021/11/08 04:56:35;;;;;;;24.27;11.27;;;5.40;99.90;;;;;;4981425;28;20498;-74
2021/11/08 05:21:00;;;;;;;21.30;11.10;;;5.40;99.90;;;;;;4983913;28;20023;-73
2021/11/08 05:21:13;;;;;;;27.23;16.15;;;5.30;99.90;;;;;;4980006;28;20046;-72
2021/11/08 05:31:41;;;;;;;27.50;14.32;;;5.20;99.90;;;;;;4975315;28;20762;-73
2021/11/08 05:34:07;;;;;;;22.20;13.43;;;5.20;99.90;;;;;;4977452;28;20089;-73
2021/11/08 05:36:33;;;;;;;24.70;12.20;;;5.20;99.90;;;;;;4980207;28;20027;-75
2021/11/08 05:39:00;;;;;;;23.98;12.32;;;5.20;99.90;;;;;;4975431;28;20621;-74
2021/11/08 05:41:26;;;;;;;24.20;13.00;;;5.20;99.90;;;;;;4975124;28;20038;-74
2021/11/08 05:43:51;;;;;;;27.38;14.00;;;5.20;99.90;;;;;;4973965;28;20027;-73
2021/11/08 05:46:19;;;;;;;29.42;14.15;;;5.20;99.90;;;;;;4973920;28;20035;-73
2021/11/08 05:48:47;;;;;;;24.48;11.70;;;5.30;99.90;;;;;;4963914;28;20026;-73
2021/11/08 05:51:13;;;;;;;21.13;10.40;;;5.30;99.90;;;;;;4989602;28;20127;-73
2021/11/08 05:53:43;;;;;;;20.15;11.35;;;5.40;99.90;;;;;;4985248;28;20445;-73
2021/11/08 05:56:17;;;;;;;27.35;11.90;;;5.40;99.90;;;;;;4986904;28;20397;-73
2021/11/08 06:50:40;;;;;;;25.60;12.88;;;5.40;99.90;;;;;;4973983;28;20488;-73
2021/11/08 06:53:16;;;;;;;27.85;14.75;;;5.40;99.90;;;;;;4987044;28;20551;-73
2021/11/08 06:55:41;;;;;;;29.70;16.55;;;5.30;99.90;;;;;;4985647;28;20023;-73
2021/11/08 06:58:14;;;;;;;35.03;17.23;;;5.10;99.90;;;;;;4973910;28;20432;-73
2021/11/08 07:00:39;;;;;;;33.28;16.08;;;5.00;99.90;;;;;;4985933;28;20031;-74
2021/11/08 07:03:05;;;;;;;24.00;14.15;;;5.00;99.90;;;;;;4980039;28;20542;-74
2021/11/08 07:05:31;;;;;;;35.05;15.63;;;5.00;99.90;;;;;;4980859;28;20039;-74
2021/11/08 07:07:56;;;;;;;26.15;16.30;;;5.00;99.90;;;;;;4986614;28;20037;-73
2021/11/08 07:10:22;;;;;;;32.75;18.73;;;5.00;99.90;;;;;;4985828;28;20039;-74
2021/11/08 07:12:49;;;;;;;25.73;16.00;;;5.00;99.90;;;;;;4980070;28;20014;-73
2021/11/08 07:15:15;;;;;;;30.83;17.70;;;4.80;99.90;;;;;;4986239;28;20030;-74
2021/11/08 07:17:40;;;;;;;32.88;18.83;;;4.90;99.90;;;;;;4978304;28;20026;-74
2021/11/08 07:20:07;;;;;;;30.77;17.73;;;4.90;99.90;;;;;;4979160;28;20401;-74
2021/11/08 07:22:34;;;;;;;30.20;16.65;;;5.00;99.90;;;;;;4986455;28;20450;-74
2021/11/08 07:25:00;;;;;;;30.42;16.88;;;5.00;99.90;;;;;;4973440;28;20038;-73
2021/11/08 07:27:26;;;;;;;24.58;14.43;;;5.10;99.90;;;;;;4984973;28;20027;-73
2021/11/08 07:29:52;;;;;;;28.45;15.40;;;5.30;99.90;;;;;;4985579;28;20030;-73
2021/11/08 07:32:18;;;;;;;27.60;16.20;;;5.40;99.90;;;;;;4979297;28;20029;-73
2021/11/08 07:34:43;;;;;;;34.28;18.35;;;5.40;99.90;;;;;;4988023;28;20023;-74
2021/11/08 07:37:09;;;;;;;33.60;18.25;;;5.50;99.90;;;;;;4971923;28;20113;-73
2021/11/08 07:39:34;;;;;;;28.83;16.83;;;5.50;99.90;;;;;;4984707;28;20384;-74
2021/11/08 07:42:00;;;;;;;30.73;18.65;;;5.50;99.90;;;;;;4979414;28;20034;-74
2021/11/08 07:44:25;;;;;;;30.15;17.42;;;5.50;99.90;;;;;;4979953;28;20030;-74
2021/11/08 07:46:51;;;;;;;30.08;16.08;;;5.50;99.90;;;;;;4986084;28;20031;-74
2021/11/08 07:49:17;;;;;;;28.00;15.90;;;5.50;99.90;;;;;;4974007;28;20374;-77
2021/11/08 07:51:43;;;;;;;28.42;17.63;;;5.60;99.90;;;;;;4977616;28;20018;-73
2021/11/08 07:54:08;;;;;;;29.48;15.35;;;5.60;99.90;;;;;;4980044;28;20081;-73
2021/11/08 07:56:34;;;;;;;26.73;15.48;;;5.60;99.90;;;;;;4976945;28;20022;-73
2021/11/08 07:59:00;;;;;;;27.85;14.43;;;5.70;99.90;;;;;;4972809;28;20451;-73
2021/11/08 08:01:25;;;;;;;25.00;15.35;;;5.90;99.90;;;;;;4972522;28;20035;-73
2021/11/08 08:03:51;;;;;;;31.50;15.30;;;5.80;99.90;;;;;;4983696;28;20397;-73
2021/11/08 08:06:17;;;;;;;30.90;15.00;;;5.80;99.90;;;;;;4977824;28;20026;-73
2021/11/08 08:08:47;;;;;;;25.92;14.95;;;5.90;99.90;;;;;;4980323;28;20019;-73
2021/11/08 08:11:13;;;;;;;25.88;15.32;;;6.00;99.90;;;;;;4972670;28;20019;-73
2021/11/08 08:13:39;;;;;;;29.65;14.45;;;6.10;99.90;;;;;;4972830;28;20041;-73
2021/11/08 08:16:08;;;;;;;29.80;14.50;;;6.10;99.90;;;;;;4964171;28;20114;-73
2021/11/08 08:18:37;;;;;;;30.95;15.32;;;6.10;99.90;;;;;;4979655;28;20023;-73
2021/11/08 08:21:04;;;;;;;24.27;13.98;;;6.30;99.90;;;;;;4966061;28;20027;-73
2021/11/08 08:23:30;;;;;;;26.60;14.98;;;6.20;99.90;;;;;;4979000;28;20030;-74
2021/11/08 08:25:56;;;;;;;29.88;14.65;;;6.30;99.90;;;;;;4964762;28;20474;-72
2021/11/08 08:28:22;;;;;;;30.33;15.05;;;6.30;99.90;;;;;;4979534;28;20023;-73
2021/11/08 08:30:48;;;;;;;27.58;15.90;;;6.40;99.90;;;;;;4977887;28;20034;-73
2021/11/08 08:33:13;;;;;;;25.15;14.13;;;6.40;99.90;;;;;;4978654;28;20027;-73
2021/11/08 08:35:41;;;;;;;31.17;14.00;;;6.50;99.90;;;;;;4980323;28;20158;-73
2021/11/08 08:38:14;;;;;;;26.85;14.43;;;6.50;99.90;;;;;;4971935;28;20069;-73
2021/11/08 08:40:40;;;;;;;28.67;14.27;;;6.50;99.90;;;;;;4979741;28;20035;-72
2021/11/08 08:43:07;;;;;;;26.67;14.18;;;6.60;99.90;;;;;;4976684;28;20086;-72
2021/11/08 08:45:34;;;;;;;25.85;12.93;;;6.60;99.90;;;;;;4963638;28;20099;-73
2021/11/08 08:48:00;;;;;;;24.40;12.98;;;6.60;99.90;;;;;;4982665;28;20030;-73
2021/11/08 08:50:27;;;;;;;25.50;12.90;;;6.80;99.90;;;;;;4983037;28;20015;-72
2021/11/08 08:52:52;;;;;;;22.80;11.02;;;6.90;99.90;;;;;;4961563;28;20051;-72
2021/11/08 08:55:19;;;;;;;25.83;12.82;;;6.80;99.90;;;;;;4982955;28;20065;-73
2021/11/08 08:57:45;;;;;;;24.45;11.18;;;6.80;99.90;;;;;;4985339;28;20022;-72
2021/11/08 09:00:13;;;;;;;21.75;10.75;;;6.70;99.90;;;;;;4972227;28;20111;-73
2021/11/08 09:02:39;;;;;;;25.17;11.30;;;6.70;99.90;;;;;;4973169;28;20034;-72
2021/11/08 09:05:05;;;;;;;25.40;10.60;;;6.60;99.90;;;;;;4983141;28;20034;-73
2021/11/08 09:07:30;;;;;;;23.50;11.25;;;6.70;99.90;;;;;;4972312;28;20058;-73
2021/11/08 09:09:56;;;;;;;27.23;13.77;;;6.70;99.90;;;;;;4983892;28;20050;-73
2021/11/08 09:12:22;;;;;;;38.65;20.25;;;6.80;99.90;;;;;;4983117;28;20477;-73
2021/11/08 09:14:48;;;;;;;26.55;10.88;;;6.70;99.90;;;;;;4985246;28;20492;-73
2021/11/08 09:17:13;;;;;;;37.70;20.38;;;6.50;99.90;;;;;;4982125;28;20039;-73
2021/11/08 09:19:39;;;;;;;43.63;22.60;;;6.40;99.90;;;;;;4995160;28;20030;-72
2021/11/08 09:22:08;;;;;;;84.63;44.53;;;6.60;99.90;;;;;;4993512;28;20034;-72
2021/11/08 09:24:33;;;;;;;43.47;21.17;;;6.70;99.90;;;;;;4995072;28;20404;-73
2021/11/08 09:27:00;;;;;;;90.20;48.92;;;6.70;99.90;;;;;;4979110;28;20037;-73
2021/11/08 09:29:26;;;;;;;46.42;23.33;;;6.90;99.90;;;;;;4975377;28;20042;-72
2021/11/08 09:31:52;;;;;;;54.58;29.40;;;7.00;99.90;;;;;;4975139;28;20117;-73
2021/11/08 09:34:21;;;;;;;30.30;15.73;;;7.30;99.90;;;;;;4975803;28;20073;-73
2021/11/08 09:36:48;;;;;;;26.60;14.82;;;7.40;99.90;;;;;;4975360;28;20070;-72
2021/11/08 09:39:24;;;;;;;21.65;12.93;;;7.60;99.90;;;;;;4984930;28;20543;-72
2021/11/08 09:42:00;;;;;;;25.13;11.20;;;7.90;99.90;;;;;;4992435;28;20031;-73
2021/11/08 09:44:26;;;;;;;22.38;10.55;;;7.80;99.90;;;;;;4975171;28;20037;-72
2021/11/08 09:46:54;;;;;;;17.80;11.00;;;7.60;99.90;;;;;;4973801;28;20035;-72
2021/11/08 09:49:21;;;;;;;21.58;10.05;;;7.50;99.90;;;;;;4975216;28;20104;-73
2021/11/08 09:51:48;;;;;;;23.05;10.55;;;7.80;99.90;;;;;;4987805;28;20102;-73
2021/11/08 09:54:15;;;;;;;25.40;9.13;;;8.00;99.90;;;;;;4988246;28;20469;-73
2021/11/08 09:56:43;;;;;;;23.85;9.43;;;7.80;99.90;;;;;;4987640;28;20489;-72
2021/11/08 09:59:10;;;;;;;16.95;9.05;;;7.90;99.90;;;;;;4973609;28;20026;-72
2021/11/08 10:01:39;;;;;;;16.17;7.72;;;7.80;99.90;;;;;;4974637;28;20031;-73
2021/11/08 10:04:06;;;;;;;15.77;7.75;;;8.00;99.90;;;;;;4961384;28;20130;-73
2021/11/08 10:06:32;;;;;;;18.88;6.95;;;8.00;99.90;;;;;;4985424;28;20027;-72
2021/11/08 10:08:58;;;;;;;17.52;6.60;;;8.10;99.90;;;;;;4988702;28;20384;-73
2021/11/08 10:11:23;;;;;;;15.43;7.57;;;8.10;99.90;;;;;;4985139;28;20023;-73
2021/11/08 10:13:50;;;;;;;19.05;7.88;;;8.10;99.90;;;;;;4973318;28;20030;-73
2021/11/08 10:16:17;;;;;;;15.45;7.60;;;8.30;99.90;;;;;;4974331;28;20042;-72
2021/11/08 10:18:48;;;;;;;18.38;7.20;;;8.30;99.90;;;;;;4973324;28;20101;-73
2021/11/08 10:21:18;;;;;;;17.35;7.07;;;8.40;99.90;;;;;;4974232;28;20469;-73
2021/11/08 10:23:47;;;;;;;17.38;6.80;;;8.50;99.90;;;;;;4973332;28;20034;-73
2021/11/08 10:26:21;;;;;;;15.13;6.72;;;8.50;99.90;;;;;;4974203;28;20035;-73
2021/11/08 10:29:03;;;;;;;13.50;6.65;;;8.30;99.90;;;;;;4978032;28;20097;-73
2021/11/08 10:31:31;;;;;;;15.32;7.50;;;8.30;99.90;;;;;;4992219;28;20109;-73
2021/11/08 10:34:00;;;;;;;18.35;7.10;;;8.30;99.90;;;;;;4986542;28;20502;-73
2021/11/08 10:36:26;;;;;;;19.92;7.03;;;8.30;99.90;;;;;;4974185;28;20113;-73
2021/11/08 10:38:55;;;;;;;13.90;6.38;;;8.40;99.90;;;;;;4974176;28;20055;-73
2021/11/08 10:41:22;;;;;;;14.48;5.78;;;8.50;99.90;;;;;;4973847;28;20067;-72
2021/11/08 10:43:54;;;;;;;14.98;5.93;;;8.40;99.90;;;;;;4972796;28;20101;-73
2021/11/08 10:46:27;;;;;;;14.93;6.32;;;8.30;99.90;;;;;;4975669;28;20066;-72
2021/11/08 10:49:02;;;;;;;13.13;6.30;;;8.10;99.90;;;;;;4984243;28;20033;-73
2021/11/08 10:51:30;;;;;;;14.38;6.40;;;8.10;99.90;;;;;;4973609;28;20026;-73
2021/11/08 10:53:59;;;;;;;14.40;6.25;;;8.20;99.90;;;;;;4973702;28;20034;-73
2021/11/08 10:56:31;;;;;;;16.40;6.78;;;8.00;99.90;;;;;;4968896;28;20023;-73
2021/11/08 10:59:01;;;;;;;20.13;6.93;;;8.00;99.90;;;;;;4978110;28;20481;-73
2021/11/08 11:01:31;;;;;;;16.10;6.57;;;8.20;99.90;;;;;;4982650;28;20061;-73
2021/11/08 11:04:00;;;;;;;15.40;6.78;;;8.30;99.90;;;;;;4984982;28;20105;-73
2021/11/08 11:06:40;;;;;;;12.98;5.93;;;8.20;99.90;;;;;;4982885;28;20023;-73
2021/11/08 11:09:21;;;;;;;16.15;6.03;;;8.10;99.90;;;;;;4979885;28;20488;-73
2021/11/08 11:11:49;;;;;;;14.70;6.72;;;8.00;99.90;;;;;;4979262;28;20019;-73
2021/11/08 11:14:16;;;;;;;17.08;7.20;;;8.10;99.90;;;;;;4987641;28;20528;-73
2021/11/08 11:16:49;;;;;;;16.38;7.10;;;8.00;99.90;;;;;;4984501;28;20440;-73
2021/11/08 11:19:18;;;;;;;18.35;7.40;;;8.00;99.90;;;;;;4983603;28;20049;-74
2021/11/08 11:22:03;;;;;;;18.90;8.15;;;7.90;99.90;;;;;;4989945;28;20031;-74
2021/11/08 11:24:46;;;;;;;14.27;5.72;;;7.90;99.90;;;;;;4983768;28;20018;-73
2021/11/08 11:27:23;;;;;;;9.18;4.57;;;7.90;99.90;;;;;;4988309;28;20062;-74
2021/11/08 11:29:49;;;;;;;8.63;4.03;;;7.80;99.90;;;;;;4984261;28;20540;-73
2021/11/08 11:32:27;;;;;;;8.68;3.15;;;7.80;99.90;;;;;;4982788;28;20033;-73
2021/11/08 11:34:57;;;;;;;11.48;3.97;;;7.80;99.90;;;;;;4984760;28;20046;-74
2021/11/08 11:37:25;;;;;;;11.10;3.70;;;7.80;99.90;;;;;;4984940;28;20077;-74
2021/11/08 11:40:08;;;;;;;11.43;4.40;;;7.90;99.90;;;;;;4984385;28;20035;-74
2021/11/08 11:42:45;;;;;;;9.18;3.55;;;8.10;99.90;;;;;;4974096;28;20041;-74
2021/11/08 11:45:10;;;;;;;9.70;4.18;;;7.90;99.90;;;;;;4984333;28;20107;-74
2021/11/08 11:47:38;;;;;;;10.60;4.65;;;7.90;99.90;;;;;;4987168;28;20035;-74
2021/11/08 11:50:03;;;;;;;12.90;5.18;;;8.00;99.90;;;;;;4980058;28;20046;-74
2021/11/08 11:52:31;;;;;;;18.73;5.32;;;7.90;99.90;;;;;;4987764;28;20019;-73
2021/11/08 11:54:57;;;;;;;12.65;4.75;;;7.90;99.90;;;;;;4979775;28;20035;-73
2021/11/08 11:57:22;;;;;;;10.82;4.50;;;8.00;99.90;;;;;;4989304;28;20512;-74
2021/11/08 11:59:48;;;;;;;11.73;4.03;;;7.90;99.90;;;;;;4986834;28;20500;-74
2021/11/08 12:02:18;;;;;;;9.35;4.60;;;7.80;99.90;;;;;;4989047;28;20084;-73
2021/11/08 12:04:44;;;;;;;10.57;4.90;;;7.90;99.90;;;;;;4984712;28;20495;-74
2021/11/08 12:07:12;;;;;;;10.80;6.30;;;7.80;99.90;;;;;;4984935;28;20034;-74
2021/11/08 12:09:38;;;;;;;14.57;4.90;;;7.70;99.90;;;;;;5000428;28;20037;-74
2021/11/08 12:12:05;;;;;;;9.50;4.45;;;7.70;99.90;;;;;;4986292;28;20053;-74
2021/11/08 12:14:33;;;;;;;8.98;4.38;;;7.70;99.90;;;;;;4984558;28;20626;-74
2021/11/08 12:17:13;;;;;;;9.45;4.60;;;7.70;99.90;;;;;;4982521;28;20042;-74
2021/11/08 12:19:41;;;;;;;15.20;4.65;;;7.70;99.90;;;;;;4972458;28;20210;-74
2021/11/08 12:22:23;;;;;;;12.45;5.82;;;7.70;99.90;;;;;;4983850;28;20495;-74
2021/11/08 12:25:01;;;;;;;13.40;6.03;;;7.80;99.90;;;;;;4980357;28;20054;-74
2021/11/08 12:27:47;;;;;;;11.82;5.70;;;7.80;99.90;;;;;;4982809;28;20027;-73
2021/11/08 12:30:24;;;;;;;12.95;5.38;;;7.90;99.90;;;;;;4991932;28;20053;-74
2021/11/08 12:32:56;;;;;;;12.00;4.90;;;8.00;99.90;;;;;;4983918;28;20113;-73
2021/11/08 12:35:37;;;;;;;13.70;5.28;;;7.90;99.90;;;;;;4979707;28;20019;-72
2021/11/08 12:38:23;;;;;;;11.75;5.47;;;7.90;99.90;;;;;;4983392;28;20054;-73
2021/11/08 12:41:04;;;;;;;13.43;4.72;;;7.90;99.90;;;;;;4976022;28;20053;-73
2021/11/08 12:43:33;;;;;;;13.07;5.63;;;8.00;99.90;;;;;;4981606;28;20430;-73
2021/11/08 12:46:17;;;;;;;11.73;5.70;;;8.10;99.90;;;;;;4986265;28;20026;-73
2021/11/08 12:48:44;;;;;;;12.45;5.85;;;8.20;99.90;;;;;;4986463;28;20030;-73
2021/11/08 12:51:12;;;;;;;9.80;5.45;;;8.10;99.90;;;;;;4979737;28;20058;-73
2021/11/08 12:53:41;;;;;;;12.50;4.63;;;8.30;99.90;;;;;;4986297;28;20014;-73
2021/11/08 12:56:25;;;;;;;8.88;3.53;;;8.30;99.90;;;;;;4985038;28;20041;-73
2021/11/08 12:58:56;;;;;;;9.10;3.03;;;8.30;99.90;;;;;;4977367;28;20045;-73
2021/11/08 13:01:24;;;;;;;6.38;3.10;;;8.30;99.90;;;;;;4985265;28;20058;-73
2021/11/08 13:03:53;;;;;;;10.02;3.45;;;8.20;99.90;;;;;;4982647;28;20540;-73
2021/11/08 13:06:26;;;;;;;12.30;4.95;;;8.20;99.90;;;;;;4982101;28;20027;-73
2021/11/08 13:09:10;;;;;;;9.80;3.67;;;8.20;99.90;;;;;;4980787;28;20033;-74
2021/11/08 13:12:10;;;;;;;12.38;3.85;;;8.20;99.90;;;;;;4974577;28;20053;-73
2021/11/08 13:14:37;;;;;;;9.73;4.38;;;8.40;99.90;;;;;;4971548;28;20073;-74
2021/11/08 13:17:17;;;;;;;10.07;3.45;;;8.30;99.90;;;;;;4980827;28;20070;-74
2021/11/08 13:19:48;;;;;;;11.90;3.20;;;8.30;99.90;;;;;;4985851;28;20366;-73
2021/11/08 13:22:22;;;;;;;8.00;3.72;;;8.30;99.90;;;;;;4987463;28;20552;-74
2021/11/08 13:25:18;;;;;;;12.75;4.10;;;8.20;99.90;;;;;;4975792;28;20023;-73
2021/11/08 13:27:49;;;;;;;9.88;3.22;;;8.10;99.90;;;;;;4955141;29;20030;-73
2021/11/08 13:30:22;;;;;;;9.50;3.83;;;8.10;99.90;;;;;;4987761;28;20109;-73
2021/11/08 13:32:49;;;;;;;8.52;3.25;;;8.00;99.90;;;;;;4984146;28;20085;-73
2021/11/08 13:35:25;;;;;;;11.07;3.50;;;8.10;99.90;;;;;;4975309;28;20023;-74
2021/11/08 13:38:10;;;;;;;;;;;8.10;99.90;;;;;;5002937;28;20037;-74
2021/11/08 13:40:54;;;;;;;8.43;3.15;;;8.10;99.90;;;;;;4987324;28;20312;-74
2021/11/08 13:43:25;;;;;;;8.43;3.10;;;7.90;99.90;;;;;;4989111;28;20030;-73
2021/11/08 13:46:06;;;;;;;5.03;2.80;;;7.80;99.90;;;;;;4973877;28;20039;-73
2021/11/08 13:48:35;;;;;;;9.35;3.83;;;7.70;99.90;;;;;;4961071;28;20107;-72
2021/11/08 13:51:16;;;;;;;10.43;3.90;;;7.70;99.90;;;;;;4974831;28;20027;-73
2021/11/08 13:53:42;;;;;;;11.70;3.30;;;7.60;99.90;;;;;;4984002;28;20460;-73
2021/11/08 13:56:10;;;;;;;8.85;3.78;;;7.50;99.90;;;;;;4991385;28;20037;-73
2021/11/08 13:58:45;;;;;;;11.85;3.97;;;7.40;99.90;;;;;;4975011;28;20023;-73
2021/11/08 14:01:11;;;;;;;9.57;3.63;;;7.40;99.90;;;;;;4974961;28;20031;-73
2021/11/08 14:03:43;;;;;;;8.38;3.40;;;7.40;99.90;;;;;;4975228;28;20041;-73
2021/11/08 14:06:09;;;;;;;10.35;4.05;;;7.40;99.90;;;;;;4975119;28;20026;-74
2021/11/08 14:08:47;;;;;;;12.55;3.90;;;7.40;99.90;;;;;;4986034;28;20377;-73
2021/11/08 14:11:23;;;;;;;11.32;4.57;;;7.50;99.90;;;;;;4979768;28;20029;-74
2021/11/08 14:13:53;;;;;;;14.27;5.70;;;7.60;99.90;;;;;;4982944;28;20019;-73
2021/11/08 14:16:18;;;;;;;11.48;5.75;;;7.60;99.90;;;;;;4974763;28;20092;-73
2021/11/08 14:18:51;;;;;;;11.32;5.70;;;7.80;99.90;;;;;;4974516;28;20477;-72
2021/11/08 14:21:16;;;;;;;12.65;5.97;;;7.80;99.90;;;;;;4985141;28;20019;-73
2021/11/08 14:23:44;;;;;;;14.05;5.85;;;7.90;99.90;;;;;;4961665;28;20030;-72
2021/11/08 14:26:21;;;;;;;15.93;8.10;;;8.00;99.90;;;;;;4973336;28;20453;-72
2021/11/08 14:28:48;;;;;;;14.95;9.60;;;7.90;99.90;;;;;;4964068;28;20038;-73
2021/11/08 14:31:29;;;;;;;20.00;9.07;;;7.80;99.90;;;;;;4992362;28;20499;-73